Peletier, North Carolina
Current Conditions -  °F | °C
As of 5:57 PM on Wednesday 17 Dec 2014 (Local Time) from KNJM Reporting Station
Clear Clear  
Wind Chill: 52°   Ceiling: Unl
Heat Index: 52°   Visibility: 10mi
Dew Point: 46°   Wind: 6mph
Humidity: 80%   Direction: 240°WSW
Pressure: 30.06"   Gusts: NA
Location:  34.7017°N, 77.1399°W
Report Text: KNJM 172257Z AUTO 24005KT 10SM CLR 11/08 A3006 RMK AO2 SLP183 T01110078 $
Loading
Personal Weather Stations






























Interactive Weather Map New forecast layout! Learn more

10-Day Weather Forecast

Advertisements
Track Severe Weather on mobile